Time;durP1;ratioP1;P1;durP2;ratioP2;P2;SDS_P1;SDS_P2;PMS_P1;PMS_P2;Temp;Humidity;BMP_temperature;BMP_pressure;BME280_temperature;BME280_humidity;BME280_pressure;Samples;Min_cycle;Max_cycle;Signal;HPM_P1;HPM_P2
2022/07/21 00:03:11;;;;;;;17.93;14.83;;;;;;;20.18;91.02;101704.97;10417052;28;20294;-75
2022/07/21 00:08:13;;;;;;;14.85;13.13;;;;;;;20.13;94.24;101693.03;10417823;28;20347;-78
2022/07/21 00:13:14;;;;;;;15.35;12.05;;;;;;;20.17;89.00;101686.81;10417511;28;20412;-78
2022/07/21 00:18:15;;;;;;;15.85;13.48;;;;;;;20.16;91.94;101681.53;10399584;28;20099;-77
2022/07/21 00:23:15;;;;;;;14.38;12.85;;;;;;;20.15;89.80;101683.47;10417653;28;20124;-77
2022/07/21 00:28:16;;;;;;;13.77;12.15;;;;;;;20.11;89.39;101693.28;10417090;28;20136;-77
2022/07/21 00:33:16;;;;;;;14.27;12.77;;;;;;;20.15;87.64;101679.88;10417352;28;20033;-76
2022/07/21 00:38:16;;;;;;;22.23;13.90;;;;;;;20.02;93.33;101691.97;10416749;28;20029;-78
2022/07/21 00:43:17;;;;;;;20.92;15.05;;;;;;;20.01;93.79;101681.25;10399852;28;20041;-79
2022/07/21 00:48:17;;;;;;;21.63;15.07;;;;;;;19.95;92.06;101680.28;10416637;28;20037;-77
2022/07/21 00:53:18;;;;;;;18.70;13.88;;;;;;;19.91;92.77;101660.69;10415714;28;20045;-79
2022/07/21 00:58:18;;;;;;;14.40;12.05;;;;;;;19.95;91.19;101680.28;10416702;28;20037;-77
2022/07/21 01:03:19;;;;;;;18.75;14.52;;;;;;;19.94;91.34;101681.34;10420469;28;20054;-77
2022/07/21 01:08:19;;;;;;;23.13;14.70;;;;;;;19.92;93.82;101689.00;10416412;28;20037;-78
2022/07/21 01:13:19;;;;;;;20.15;16.10;;;;;;;19.92;94.67;101683.50;10415703;28;20026;-77
2022/07/21 01:18:20;;;;;;;19.80;15.63;;;;;;;19.89;94.44;101675.75;10415557;28;20374;-77
2022/07/21 01:23:21;;;;;;;18.53;14.43;;;;;;;19.93;90.09;101676.94;10431310;28;20029;-77
2022/07/21 01:28:21;;;;;;;17.17;14.40;;;;;;;19.92;90.76;101678.00;10416129;28;20317;-78
2022/07/21 01:33:21;;;;;;;20.23;17.23;;;;;;;19.80;95.98;101672.53;10415155;28;20022;-77
2022/07/21 01:43:41;;;;;;;19.98;16.00;;;;;;;19.91;89.09;101662.56;10415012;28;20034;-78
2022/07/21 01:48:42;;;;;;;24.45;15.50;;;;;;;19.92;89.12;101658.78;10415396;28;20037;-78
2022/07/21 01:53:43;;;;;;;22.17;18.30;;;;;;;19.96;92.69;101659.94;10430160;28;20477;-77
2022/07/21 01:58:43;;;;;;;20.30;15.65;;;;;;;20.03;92.17;101665.31;10414224;28;20038;-78
2022/07/21 02:03:44;;;;;;;18.27;15.40;;;;;;;20.11;90.81;101657.53;10418781;28;20049;-77
2022/07/21 02:08:45;;;;;;;26.52;16.83;;;;;;;20.03;93.43;101641.41;10422312;28;20092;-78
2022/07/21 02:13:45;;;;;;;28.38;19.58;;;;;;;19.99;91.35;101640.22;10421519;28;20063;-78
2022/07/21 02:18:46;;;;;;;26.80;20.23;;;;;;;19.92;94.52;101642.28;10423844;28;20445;-78
2022/07/21 02:23:46;;;;;;;24.92;19.13;;;;;;;19.83;99.29;101640.97;10428098;28;20068;-79
2022/07/21 02:28:46;;;;;;;24.15;18.38;;;;;;;19.82;98.48;101634.66;10421712;28;20037;-77
2022/07/21 02:33:47;;;;;;;25.80;20.42;;;;;;;19.75;100.00;101631.19;10403519;28;20033;-78
2022/07/21 02:38:48;;;;;;;24.48;18.33;;;;;;;19.82;100.00;101642.06;10421124;28;20083;-78
2022/07/21 02:43:48;;;;;;;24.53;17.13;;;;;;;19.96;98.85;101640.72;10421252;28;20137;-78
2022/07/21 02:48:48;;;;;;;23.02;15.80;;;;;;;20.09;97.01;101637.69;10420792;28;20278;-78
2022/07/21 02:53:49;;;;;;;19.40;16.85;;;;;;;20.17;95.60;101622.75;10421832;28;20044;-77
2022/07/21 02:58:49;;;;;;;23.07;17.10;;;;;;;20.25;93.70;101624.25;10420828;28;20040;-78
2022/07/21 03:03:49;;;;;;;27.17;16.45;;;;;;;20.24;95.41;101609.66;10421137;28;20301;-78
2022/07/21 03:08:50;;;;;;;19.95;17.33;;;;;;;20.33;93.11;101618.38;10420734;28;20052;-78
2022/07/21 03:13:50;;;;;;;31.27;21.15;;;;;;;20.29;96.86;101617.19;10419409;28;20378;-78
2022/07/21 03:18:51;;;;;;;26.05;18.77;;;;;;;20.25;97.03;101616.84;10419902;28;20029;-78
2022/07/21 03:23:51;;;;;;;22.67;18.05;;;;;;;20.27;94.18;101614.69;10420691;28;20037;-78
2022/07/21 03:28:51;;;;;;;22.92;18.90;;;;;;;20.21;97.38;101622.00;10419409;28;20060;-78
2022/07/21 03:33:52;;;;;;;23.55;17.52;;;;;;;20.25;94.96;101625.09;10401341;28;20044;-77
2022/07/21 03:38:52;;;;;;;26.87;19.93;;;;;;;20.32;93.66;101633.19;10418509;28;20038;-78
2022/07/21 03:43:52;;;;;;;37.78;25.45;;;;;;;20.31;93.96;101626.03;10418797;28;20286;-78
2022/07/21 03:48:53;;;;;;;36.20;25.33;;;;;;;20.25;95.68;101616.84;10418817;28;20048;-78
2022/07/21 03:53:53;;;;;;;25.65;20.42;;;;;;;20.25;96.84;101610.50;10419448;28;20040;-78
2022/07/21 03:58:54;;;;;;;38.90;23.25;;;;;;;20.28;96.09;101616.34;10419582;28;20535;-78
2022/07/21 04:03:54;;;;;;;34.47;28.42;;;;;;;20.15;100.00;101625.72;10423859;28;20152;-78
2022/07/21 04:08:54;;;;;;;37.40;31.92;;;;;;;20.18;96.50;101614.22;10417901;28;20048;-78
2022/07/21 04:13:55;;;;;;;35.38;27.67;;;;;;;20.21;96.27;101627.50;10417148;28;20087;-79
2022/07/21 04:18:55;;;;;;;42.08;29.98;;;;;;;20.24;96.03;101628.09;10417931;28;20045;-78
2022/07/21 04:23:55;;;;;;;36.97;27.33;;;;;;;20.20;96.35;101636.84;10418219;28;20037;-79
2022/07/21 04:28:56;;;;;;;33.57;22.10;;;;;;;20.23;95.36;101642.91;10416358;28;20037;-79
2022/07/21 04:33:56;;;;;;;35.72;23.40;;;;;;;20.13;94.07;101647.13;10417024;28;20278;-71
2022/07/21 04:38:56;;;;;;;38.70;21.65;;;;;;;19.95;94.60;101653.63;10416557;28;20033;-73
2022/07/21 04:44:00;;;;;;;42.20;22.75;;;;;;;19.80;94.26;101653.28;10419536;28;20326;-74
2022/07/21 04:49:02;;;;;;;42.45;19.80;;;;;;;19.67;93.16;101654.38;10421026;28;20470;-73
2022/07/21 04:54:02;;;;;;;22.83;18.45;;;;;;;19.63;91.98;101663.31;10433192;28;20033;-72
2022/07/21 04:59:02;;;;;;;36.67;20.08;;;;;;;19.54;93.12;101657.31;10358476;28;20140;-68
2022/07/21 05:04:03;;;;;;;25.83;19.75;;;;;;;19.46;92.29;101653.03;10406203;28;20634;-67
2022/07/21 05:09:04;;;;;;;41.25;21.10;;;;;;;19.33;93.01;101655.16;10415908;28;20095;-67
2022/07/21 05:14:05;;;;;;;34.35;19.73;;;;;;;19.31;93.78;101654.59;10415394;28;20029;-65
2022/07/21 05:19:05;;;;;;;42.53;21.63;;;;;;;19.26;93.59;101644.28;10415059;28;20060;-65
2022/07/21 05:24:06;;;;;;;31.45;22.08;;;;;;;19.24;93.87;101644.53;10414560;28;20041;-70
2022/07/21 05:29:06;;;;;;;22.95;18.40;;;;;;;19.24;93.96;101649.16;10381269;28;20504;-72
2022/07/21 05:34:07;;;;;;;32.45;20.95;;;;;;;19.23;94.61;101653.84;10397831;28;20477;-71
2022/07/21 05:39:08;;;;;;;25.38;20.83;;;;;;;19.19;94.03;101652.66;10419994;28;20045;-71
2022/07/21 05:44:08;;;;;;;43.45;21.00;;;;;;;19.17;94.09;101660.25;10423068;28;20071;-72
2022/07/21 05:49:08;;;;;;;31.30;19.25;;;;;;;19.16;94.55;101653.13;10405048;28;20034;-72
2022/07/21 05:54:09;;;;;;;26.73;15.48;;;;;;;19.03;96.11;101656.06;10422649;28;20033;-71
2022/07/21 05:59:09;;;;;;;24.55;13.52;;;;;;;18.92;96.92;101662.34;10423309;28;20381;-72
2022/07/21 06:04:09;;;;;;;31.08;16.05;;;;;;;18.88;96.59;101658.41;10404763;28;20092;-72
2022/07/21 06:09:10;;;;;;;26.95;14.82;;;;;;;18.85;96.36;101659.72;10423668;28;20033;-71
2022/07/21 06:14:10;;;;;;;22.33;14.63;;;;;;;18.84;96.55;101658.06;10405751;28;20453;-71
2022/07/21 06:19:11;;;;;;;16.02;11.43;;;;;;;18.85;97.75;101673.44;10404508;28;20037;-71
2022/07/21 06:24:11;;;;;;;15.20;12.57;;;;;;;18.84;99.27;101668.19;10403906;28;20057;-69
2022/07/21 06:29:11;;;;;;;18.15;11.48;;;;;;;18.76;99.55;101672.97;10420293;28;20072;-68
2022/07/21 06:34:12;;;;;;;9.52;7.90;;;;;;;18.72;99.14;101670.88;10404439;28;20124;-68
2022/07/21 06:39:12;;;;;;;6.20;5.68;;;;;;;18.72;98.54;101677.22;10403087;28;20037;-69
2022/07/21 06:44:13;;;;;;;7.07;5.57;;;;;;;18.62;100.00;101670.59;10420707;28;20052;-68
2022/07/21 06:49:13;;;;;;;10.23;6.30;;;;;;;18.59;100.00;101675.47;10418862;28;20041;-69
2022/07/21 06:54:13;;;;;;;13.20;7.80;;;;;;;18.52;100.00;101682.13;10420791;28;20132;-68
2022/07/21 06:59:14;;;;;;;12.43;9.20;;;;;;;18.50;100.00;101687.00;10402975;28;20072;-70
2022/07/21 07:04:14;;;;;;;10.65;7.65;;;;;;;18.49;100.00;101699.88;10420462;28;20491;-69
2022/07/21 07:09:15;;;;;;;7.32;6.72;;;;;;;18.35;100.00;101698.38;10420441;28;20045;-71
2022/07/21 07:14:15;;;;;;;12.65;7.82;;;;;;;18.32;100.00;101709.81;10420984;28;20037;-70
2022/07/21 07:19:16;;;;;;;11.15;8.10;;;;;;;18.29;100.00;101711.09;10401962;28;20485;-70
2022/07/21 07:24:16;;;;;;;13.25;11.35;;;;;;;18.32;100.00;101718.84;10417826;28;20064;-70
2022/07/21 07:29:16;;;;;;;20.02;12.23;;;;;;;18.33;100.00;101712.28;10420019;28;20072;-70
2022/07/21 07:34:17;;;;;;;21.25;13.48;;;;;;;18.48;100.00;101717.41;10401763;28;20104;-70
2022/07/21 07:39:17;;;;;;;25.77;15.98;;;;;;;18.61;100.00;101710.91;10385885;28;20046;-70
2022/07/21 07:44:18;;;;;;;19.50;14.35;;;;;;;18.74;100.00;101716.25;10418321;28;20386;-70
2022/07/21 07:49:18;;;;;;;14.55;13.15;;;;;;;18.84;100.00;101721.19;10418211;28;20060;-70
2022/07/21 07:54:19;;;;;;;17.92;13.20;;;;;;;18.69;100.00;101710.56;10402100;28;20376;-70
2022/07/21 07:59:19;;;;;;;21.58;14.55;;;;;;;18.64;100.00;101713.19;10401819;28;20475;-72
2022/07/21 08:04:19;;;;;;;13.35;11.30;;;;;;;18.52;100.00;101717.78;10419055;28;20500;-72
2022/07/21 08:09:20;;;;;;;19.23;11.27;;;;;;;18.39;100.00;101724.25;10401018;28;20149;-72
2022/07/21 08:14:20;;;;;;;19.27;12.02;;;;;;;18.36;100.00;101724.72;10417493;28;20065;-73
2022/07/21 08:19:21;;;;;;;24.02;12.43;;;;;;;18.45;100.00;101725.25;10400230;28;20123;-71
2022/07/21 08:24:21;;;;;;;18.60;11.50;;;;;;;18.44;100.00;101732.66;10417543;28;20034;-71
2022/07/21 08:29:22;;;;;;;20.83;10.98;;;;;;;18.47;100.00;101731.31;10400848;28;20033;-71
2022/07/21 08:34:22;;;;;;;22.52;10.18;;;;;;;18.47;100.00;101734.91;10417708;28;20128;-72
2022/07/21 08:39:22;;;;;;;26.80;10.35;;;;;;;18.59;100.00;101729.50;10400844;28;20077;-71
2022/07/21 08:44:23;;;;;;;20.23;10.48;;;;;;;18.87;100.00;101742.66;10398732;28;20033;-72
2022/07/21 08:49:23;;;;;;;15.93;9.07;;;;;;;19.13;100.00;101744.19;10414345;28;20029;-72
2022/07/21 08:54:24;;;;;;;10.48;7.35;;;;;;;19.17;100.00;101750.88;10400279;28;20029;-71
2022/07/21 08:59:26;;;;;;;16.88;6.15;;;;;;;19.22;100.00;101751.03;10398728;28;20037;-71
2022/07/21 09:04:32;;;;;;;5.07;4.65;;;;;;;19.45;100.00;101749.41;10417897;28;20049;-71
2022/07/21 09:09:33;;;;;;;7.05;3.75;;;;;;;19.25;100.00;101747.81;10399248;28;20041;-73
2022/07/21 09:14:35;;;;;;;8.00;3.78;;;;;;;18.90;100.00;101749.59;10397709;28;20041;-72
2022/07/21 09:19:38;;;;;;;4.63;3.65;;;;;;;18.56;100.00;101760.13;10415352;28;20025;-72
2022/07/21 09:24:39;;;;;;;4.50;4.07;;;;;;;18.40;100.00;101763.50;10416526;28;20029;-72
2022/07/21 09:29:40;;;;;;;5.95;4.05;;;;;;;18.39;100.00;101765.41;10398503;28;20037;-71
2022/07/21 09:34:41;;;;;;;3.45;3.13;;;;;;;18.44;100.00;101772.91;10416186;28;20065;-73
2022/07/21 09:39:46;;;;;;;7.40;4.03;;;;;;;18.35;100.00;101778.72;10415256;28;20068;-71
2022/07/21 09:44:49;;;;;;;3.45;2.58;;;;;;;18.26;100.00;101782.00;10413902;28;20037;-70
2022/07/21 09:49:50;;;;;;;6.03;4.00;;;;;;;18.21;100.00;101782.66;10398004;28;20028;-71
2022/07/21 09:54:51;;;;;;;3.25;2.95;;;;;;;18.25;100.00;101789.38;10397417;28;20499;-70
2022/07/21 09:59:52;;;;;;;3.05;2.75;;;;;;;18.28;100.00;101794.41;10414225;28;20041;-69
2022/07/21 10:04:59;;;;;;;6.78;3.67;;;;;;;18.35;100.00;101797.09;10414967;28;20053;-70
2022/07/21 10:10:00;;;;;;;3.58;3.28;;;;;;;18.51;100.00;101801.97;10397823;28;20087;-69
2022/07/21 10:15:00;;;;;;;4.07;3.72;;;;;;;18.93;100.00;101798.53;10415637;28;20417;-70
2022/07/21 10:20:06;;;;;;;6.10;3.92;;;;;;;19.02;100.00;101805.41;10414800;28;20044;-68
2022/07/21 10:25:07;;;;;;;4.22;3.53;;;;;;;18.83;100.00;101807.31;10416585;28;20461;-69
2022/07/21 10:30:08;;;;;;;6.30;3.10;;;;;;;18.85;100.00;101809.81;10420441;28;20140;-70
2022/07/21 10:35:41;;;;;;;2.63;2.42;;;;;;;19.06;100.00;101817.56;10421260;28;20095;-70
2022/07/21 10:40:42;;;;;;;6.10;2.60;;;;;;;19.33;100.00;101815.28;10409541;28;20461;-70
2022/07/21 10:45:42;;;;;;;3.03;2.20;;;;;;;19.24;100.00;101812.06;10420710;28;20080;-69
2022/07/21 10:50:43;;;;;;;5.70;2.00;;;;;;;19.30;100.00;101821.25;10404390;28;20030;-70
2022/07/21 10:55:48;;;;;;;8.88;2.17;;;;;;;19.31;100.00;101822.94;10403452;28;20112;-70
2022/07/21 11:00:50;;;;;;;4.57;2.75;;;;;;;19.28;100.00;101835.22;10402744;28;20061;-70
2022/07/21 11:06:06;;;;;;;2.47;1.75;;;;;;;18.97;100.00;101843.66;10419375;28;20036;-70
2022/07/21 11:11:11;;;;;;;1.58;1.48;;;;;;;18.90;100.00;101845.66;10420388;28;20057;-70
2022/07/21 11:16:12;;;;;;;4.32;1.65;;;;;;;18.76;100.00;101851.31;10419902;28;20038;-70
2022/07/21 11:21:14;;;;;;;1.77;1.67;;;;;;;18.77;100.00;101865.88;10418960;28;20109;-70
2022/07/21 11:26:22;;;;;;;6.85;3.08;;;;;;;18.63;100.00;101865.13;10417999;28;20033;-71
2022/07/21 11:31:24;;;;;;;9.25;3.60;;;;;;;18.68;100.00;101872.69;10418123;28;20030;-70
2022/07/21 11:36:31;;;;;;;2.38;2.10;;;;;;;18.67;100.00;101862.78;10418509;28;20469;-70
2022/07/21 11:41:32;;;;;;;;;;;;;;;18.57;100.00;101868.81;10419146;28;20025;-70
2022/07/21 11:46:49;;;;;;;7.65;2.33;;;;;;;18.55;100.00;101870.94;10418614;28;19976;-70
2022/07/21 11:52:06;;;;;;;3.13;1.92;;;;;;;18.36;100.00;101870.88;10400532;28;20040;-70
2022/07/21 11:57:07;;;;;;;;;;;;;;;18.32;100.00;101885.28;10385634;28;20034;-69
2022/07/21 12:02:08;;;;;;;2.50;1.90;;;;;;;18.27;100.00;101880.47;10418812;28;19916;-70
2022/07/21 12:07:30;;;;;;;3.97;2.42;;;;;;;18.35;100.00;101882.09;10400391;28;20041;-70
2022/07/21 12:12:38;;;;;;;3.20;1.65;;;;;;;18.30;100.00;101882.75;10400003;28;20036;-69
2022/07/21 12:17:40;;;;;;;4.95;1.70;;;;;;;18.36;100.00;101894.75;10399444;28;20362;-69
2022/07/21 12:22:46;;;;;;;7.15;2.28;;;;;;;18.50;100.00;101882.56;10399456;28;20041;-70
2022/07/21 12:27:47;;;;;;;4.45;2.30;;;;;;;18.67;100.00;101890.22;10415784;28;20030;-70
2022/07/21 12:32:48;;;;;;;2.13;1.73;;;;;;;18.72;100.00;101896.72;10399603;28;20385;-71
2022/07/21 12:38:03;;;;;;;9.77;3.35;;;;;;;18.57;100.00;101894.31;10416855;28;20171;-71
2022/07/21 12:43:08;;;;;;;15.63;3.80;;;;;;;18.43;100.00;101905.66;10399269;28;20120;-70
2022/07/21 12:48:10;;;;;;;7.65;2.70;;;;;;;18.33;100.00;101917.97;10415548;28;20040;-71
2022/07/21 12:53:11;;;;;;;25.63;3.30;;;;;;;18.29;100.00;101919.47;10415925;28;20087;-70
2022/07/21 12:58:11;;;;;;;4.82;2.80;;;;;;;18.19;100.00;101918.28;10416538;28;20065;-70
2022/07/21 13:03:14;;;;;;;10.90;3.38;;;;;;;18.20;100.00;101929.03;10416580;28;20147;-70
2022/07/21 13:08:15;;;;;;;9.32;3.80;;;;;;;18.24;100.00;101935.75;10417582;28;20059;-70
2022/07/21 13:13:16;;;;;;;7.10;3.40;;;;;;;18.25;100.00;101934.72;10385142;28;20561;-70
2022/07/21 13:18:16;;;;;;;6.63;3.63;;;;;;;18.24;100.00;101946.72;10417686;28;20105;-70
2022/07/21 13:23:17;;;;;;;3.55;2.95;;;;;;;18.32;100.00;101945.63;10400524;28;20083;-71
2022/07/21 13:28:17;;;;;;;4.70;3.40;;;;;;;18.20;100.00;101950.97;10399940;28;20436;-71
2022/07/21 13:33:18;;;;;;;7.47;2.97;;;;;;;18.20;100.00;101961.94;10400264;28;20396;-71
2022/07/21 13:38:18;;;;;;;8.13;3.70;;;;;;;18.18;100.00;101971.44;10401190;28;20147;-71
2022/07/21 13:43:18;;;;;;;8.98;3.08;;;;;;;18.23;100.00;101980.69;10416962;28;20373;-72
2022/07/21 13:48:19;;;;;;;13.80;4.35;;;;;;;18.22;100.00;101980.91;10398186;28;20044;-72
2022/07/21 13:53:20;;;;;;;6.25;3.38;;;;;;;18.11;100.00;101986.03;10415671;28;20078;-71
2022/07/21 13:58:22;;;;;;;9.40;3.28;;;;;;;18.12;100.00;101975.91;10417482;28;20130;-72
2022/07/21 14:03:22;;;;;;;14.50;3.80;;;;;;;18.12;100.00;101998.69;10404499;28;20092;-71
2022/07/21 14:08:23;;;;;;;8.43;3.10;;;;;;;18.08;100.00;101996.59;10421667;28;20118;-71
2022/07/21 14:13:23;;;;;;;11.80;3.95;;;;;;;18.10;100.00;102006.28;10421496;28;20440;-73
2022/07/21 14:18:24;;;;;;;14.52;4.35;;;;;;;18.30;100.00;102008.06;10422154;28;20133;-72
2022/07/21 14:23:24;;;;;;;7.72;3.53;;;;;;;18.49;100.00;102017.19;10420978;28;20033;-72
2022/07/21 14:28:25;;;;;;;5.10;2.85;;;;;;;18.49;100.00;102018.03;10403668;28;20042;-71
2022/07/21 14:33:25;;;;;;;14.77;3.10;;;;;;;18.45;100.00;102025.03;10419671;28;20124;-73
2022/07/21 14:38:26;;;;;;;17.92;5.68;;;;;;;18.39;100.00;102025.94;10421308;28;20037;-72
2022/07/21 14:43:26;;;;;;;16.75;3.90;;;;;;;18.42;100.00;102030.13;10419503;28;20036;-73
2022/07/21 14:48:26;;;;;;;11.38;3.25;;;;;;;18.44;100.00;102044.44;10419905;28;20038;-72
2022/07/21 14:53:27;;;;;;;10.63;3.85;;;;;;;18.33;100.00;102038.63;10435812;28;20041;-72
2022/07/21 14:58:27;;;;;;;9.18;4.25;;;;;;;18.37;100.00;102041.75;10434979;28;20087;-72
2022/07/21 15:03:28;;;;;;;6.32;2.92;;;;;;;18.35;100.00;102043.91;10419326;28;20049;-73
2022/07/21 15:08:28;;;;;;;14.00;3.20;;;;;;;18.34;100.00;102044.94;10420008;28;20073;-73
2022/07/21 15:13:31;;;;;;;6.53;3.15;;;;;;;18.44;100.00;102049.94;10401833;28;20354;-72
2022/07/21 15:18:31;;;;;;;11.73;3.45;;;;;;;18.58;100.00;102048.78;10401716;28;20037;-72
2022/07/21 15:23:32;;;;;;;16.77;3.63;;;;;;;18.68;100.00;102060.09;10419136;28;20485;-73
2022/07/21 15:28:32;;;;;;;13.20;3.55;;;;;;;18.75;100.00;102058.16;10402679;28;20124;-73
2022/07/21 15:33:33;;;;;;;8.88;3.35;;;;;;;18.70;100.00;102062.63;10418862;28;20037;-73
2022/07/21 15:38:34;;;;;;;8.02;4.07;;;;;;;18.57;100.00;102064.41;10401686;28;20121;-72
2022/07/21 15:43:35;;;;;;;9.15;3.05;;;;;;;18.51;100.00;102075.44;10418749;28;20086;-74
2022/07/21 15:48:36;;;;;;;10.00;3.80;;;;;;;18.52;100.00;102077.09;10399955;28;20091;-73
2022/07/21 15:53:36;;;;;;;17.38;3.67;;;;;;;18.51;100.00;102073.53;10416278;28;20445;-73
2022/07/21 15:59:33;;;;;;;13.95;3.33;;;;;;;18.45;100.00;102085.38;10417413;28;20120;-72
2022/07/21 16:03:58;;;;;;;9.05;4.80;;;;;;;18.57;100.00;102093.75;10415780;28;20050;-73
2022/07/21 16:08:59;;;;;;;10.32;3.72;;;;;;;18.56;100.00;102092.03;10417976;28;20484;-74
2022/07/21 16:13:59;;;;;;;9.95;3.67;;;;;;;18.47;100.00;102107.09;10417436;28;20034;-72
2022/07/21 16:18:59;;;;;;;8.15;2.83;;;;;;;18.40;100.00;102109.03;10432757;28;20104;-75
2022/07/21 16:24:00;;;;;;;19.20;4.72;;;;;;;18.42;100.00;102120.66;10415397;28;20048;-72
2022/07/21 16:29:00;;;;;;;13.23;3.55;;;;;;;18.45;100.00;102117.47;10416903;28;20367;-71
2022/07/21 16:34:01;;;;;;;6.50;3.55;;;;;;;18.36;100.00;102128.69;10417222;28;20056;-74
2022/07/21 16:39:02;;;;;;;14.10;4.25;;;;;;;18.28;100.00;102119.84;10432354;28;20038;-72
2022/07/21 16:44:04;;;;;;;16.27;3.75;;;;;;;18.31;100.00;102125.75;10416321;28;20036;-73
2022/07/21 16:49:07;;;;;;;11.43;2.88;;;;;;;18.33;100.00;102131.84;10415018;28;20477;-73
2022/07/21 16:54:07;;;;;;;9.38;3.80;;;;;;;18.27;100.00;102134.63;10416065;28;20487;-72
2022/07/21 16:59:08;;;;;;;15.40;3.72;;;;;;;18.26;100.00;102136.53;10415844;28;20091;-72
2022/07/21 17:04:09;;;;;;;4.88;2.72;;;;;;;18.20;100.00;102133.84;10438774;28;20060;-69
2022/07/21 17:09:09;;;;;;;9.20;3.85;;;;;;;17.98;100.00;102133.28;10439096;28;20041;-73
2022/07/21 17:14:11;;;;;;;10.65;4.13;;;;;;;17.67;100.00;102124.69;10438457;28;20470;-72
2022/07/21 17:19:11;;;;;;;14.65;3.78;;;;;;;17.53;100.00;102139.50;10456840;28;20029;-72
2022/07/21 17:24:12;;;;;;;22.30;4.60;;;;;;;17.50;100.00;102137.19;10456397;28;20523;-72
2022/07/21 17:29:12;;;;;;;9.70;4.35;;;;;;;17.52;100.00;102151.50;10456429;28;20033;-73
2022/07/21 17:34:13;;;;;;;19.70;5.03;;;;;;;17.53;100.00;102141.41;10442789;28;20033;-71
2022/07/21 17:39:13;;;;;;;7.85;3.80;;;;;;;17.63;100.00;102152.75;10464563;28;20464;-73
2022/07/21 17:44:14;;;;;;;9.63;4.45;;;;;;;17.76;100.00;102141.75;10446755;28;20029;-73
2022/07/21 17:49:14;;;;;;;7.47;4.38;;;;;;;17.81;100.00;102133.78;10464693;28;20072;-73
2022/07/21 17:54:14;;;;;;;7.65;3.67;;;;;;;17.94;100.00;102138.38;10464132;28;20472;-72
2022/07/21 17:59:15;;;;;;;11.95;4.50;;;;;;;17.99;100.00;102148.66;10463249;28;20052;-73
2022/07/21 18:04:15;;;;;;;6.88;2.72;;;;;;;18.06;100.00;102144.00;10433725;28;20053;-73
2022/07/21 18:09:16;;;;;;;10.82;4.45;;;;;;;18.10;100.00;102159.81;10405588;28;20128;-72
2022/07/21 18:14:16;;;;;;;8.65;3.17;;;;;;;18.10;100.00;102157.06;10406040;28;20037;-72
2022/07/21 18:19:17;;;;;;;5.55;3.30;;;;;;;18.04;100.00;102159.84;10422011;28;20540;-72
2022/07/21 18:24:17;;;;;;;7.00;2.75;;;;;;;18.02;100.00;102165.50;10420322;28;20033;-72
2022/07/21 18:29:17;;;;;;;9.27;4.18;;;;;;;18.05;100.00;102167.81;10421705;28;20033;-72
2022/07/21 18:34:18;;;;;;;7.40;3.22;;;;;;;18.01;100.00;102174.81;10402909;28;20076;-73
2022/07/21 18:39:18;;;;;;;18.50;3.63;;;;;;;17.99;100.00;102171.44;10422097;28;20037;-65
2022/07/21 18:44:19;;;;;;;9.40;3.17;;;;;;;17.98;100.00;102171.66;10419209;28;20037;-67
2022/07/21 18:49:20;;;;;;;16.73;2.63;;;;;;;17.94;100.00;102178.63;10420844;28;20072;-65
2022/07/21 18:54:20;;;;;;;5.20;3.22;;;;;;;17.83;100.00;102180.13;10419430;28;20037;-66
2022/07/21 18:59:21;;;;;;;9.13;4.15;;;;;;;17.79;100.00;102189.84;10420452;28;20041;-67
2022/07/21 19:04:22;;;;;;;9.32;3.63;;;;;;;17.75;100.00;102185.81;10419508;28;20080;-68
2022/07/21 19:09:23;;;;;;;12.18;3.70;;;;;;;17.74;100.00;102187.72;10401466;28;20072;-67
2022/07/21 19:14:24;;;;;;;11.05;3.22;;;;;;;17.71;100.00;102192.75;10422251;28;20033;-66
2022/07/21 19:19:25;;;;;;;12.93;3.45;;;;;;;17.71;100.00;102190.88;10420206;28;20504;-66
2022/07/21 19:24:25;;;;;;;9.75;2.85;;;;;;;17.65;100.00;102197.22;10417994;28;20041;-69
2022/07/21 19:29:25;;;;;;;5.93;3.05;;;;;;;17.66;100.00;102197.00;10386140;28;20481;-66
2022/07/21 19:34:27;;;;;;;9.38;2.78;;;;;;;17.63;100.00;102199.31;10418189;28;20025;-67
2022/07/21 19:39:27;;;;;;;4.50;2.60;;;;;;;17.59;100.00;102203.53;10401655;28;20055;-68
2022/07/21 19:44:27;;;;;;;11.85;3.28;;;;;;;17.54;100.00;102217.84;10417128;28;20033;-70
2022/07/21 19:49:28;;;;;;;7.90;3.22;;;;;;;17.45;100.00;102213.66;10419389;28;20115;-70
2022/07/21 19:54:28;;;;;;;14.52;4.35;;;;;;;17.41;100.00;102224.19;10419354;28;20037;-66
2022/07/21 19:59:29;;;;;;;9.60;3.17;;;;;;;17.41;100.00;102232.41;10399249;28;20064;-68
2022/07/21 20:04:29;;;;;;;14.70;3.50;;;;;;;17.39;100.00;102231.78;10417448;28;20107;-69
2022/07/21 20:09:30;;;;;;;10.95;3.67;;;;;;;17.37;100.00;102235.78;10417697;28;20038;-71
2022/07/21 20:14:30;;;;;;;7.80;2.70;;;;;;;17.39;100.00;102231.78;10418062;28;20426;-71
2022/07/21 20:19:31;;;;;;;6.45;2.72;;;;;;;17.40;100.00;102241.69;10417231;28;20443;-70
2022/07/21 20:24:31;;;;;;;8.55;4.07;;;;;;;17.35;100.00;102235.97;10416185;28;20065;-69
2022/07/21 20:29:32;;;;;;;8.45;2.28;;;;;;;17.41;100.00;102234.28;10399774;28;20044;-71
2022/07/21 20:34:32;;;;;;;6.53;3.70;;;;;;;17.34;100.00;102225.25;10418956;28;20458;-73
2022/07/21 20:39:33;;;;;;;7.82;4.00;;;;;;;17.34;100.00;102228.81;10418711;28;20034;-72
2022/07/21 20:44:33;;;;;;;6.50;2.33;;;;;;;17.34;100.00;102236.19;10423584;28;20036;-73
2022/07/21 20:49:33;;;;;;;9.43;2.83;;;;;;;17.32;100.00;102233.66;10421279;28;20132;-74
2022/07/21 20:54:34;;;;;;;7.10;3.08;;;;;;;17.35;100.00;102232.41;10424906;28;20048;-71
2022/07/21 20:59:34;;;;;;;6.32;2.35;;;;;;;17.30;100.00;102235.78;10425713;28;20341;-71
2022/07/21 21:04:35;;;;;;;12.00;3.38;;;;;;;17.28;100.00;102234.28;10421860;28;20112;-71
2022/07/21 21:09:35;;;;;;;7.32;3.25;;;;;;;17.26;100.00;102233.66;10424442;28;20133;-70
2022/07/21 21:14:35;;;;;;;7.57;2.75;;;;;;;17.28;100.00;102229.66;10424713;28;20033;-71
2022/07/21 21:19:36;;;;;;;4.82;2.83;;;;;;;17.19;100.00;102234.50;10424448;28;20045;-73
2022/07/21 21:24:36;;;;;;;4.43;2.78;;;;;;;17.16;100.00;102239.53;10409630;28;20037;-74
2022/07/21 21:29:37;;;;;;;8.98;2.65;;;;;;;17.15;100.00;102241.44;10429347;28;20042;-73
2022/07/21 21:34:37;;;;;;;7.72;2.42;;;;;;;17.19;100.00;102241.88;10423897;28;20052;-74
2022/07/21 21:39:37;;;;;;;3.00;2.67;;;;;;;17.20;100.00;102241.66;10424504;28;20045;-74
2022/07/21 21:44:38;;;;;;;11.32;3.58;;;;;;;17.23;100.00;102245.03;10416528;28;20129;-74
2022/07/21 21:49:39;;;;;;;6.22;2.58;;;;;;;17.22;100.00;102235.97;10432447;28;20092;-73
2022/07/21 21:54:39;;;;;;;8.57;3.50;;;;;;;17.19;100.00;102247.34;10429244;28;20040;-73
2022/07/21 21:59:40;;;;;;;7.00;3.15;;;;;;;17.11;100.00;102244.81;10431372;28;20034;-74
2022/07/21 22:04:40;;;;;;;16.33;2.38;;;;;;;17.11;100.00;102242.06;10426413;28;20053;-74
2022/07/21 22:09:40;;;;;;;2.88;2.30;;;;;;;17.09;100.00;102250.47;10419284;28;20041;-75
2022/07/21 22:14:41;;;;;;;4.13;2.80;;;;;;;17.06;100.00;102255.53;10384501;28;20065;-74
2022/07/21 22:19:41;;;;;;;6.53;2.47;;;;;;;16.95;100.00;102249.63;10419464;28;20132;-74
2022/07/21 22:24:42;;;;;;;4.10;2.83;;;;;;;16.74;100.00;102247.84;10423624;28;20485;-74
2022/07/21 22:29:42;;;;;;;7.47;1.63;;;;;;;16.47;100.00;102251.53;10422070;28;20080;-74
2022/07/21 22:34:42;;;;;;;11.57;2.15;;;;;;;16.30;100.00;102250.19;10422888;28;20093;-73
2022/07/21 22:39:43;;;;;;;9.02;3.00;;;;;;;16.33;100.00;102250.63;10387713;28;20037;-73
2022/07/21 22:44:44;;;;;;;5.93;1.95;;;;;;;16.52;100.00;102251.75;10421219;28;20042;-73